createdAt,value
2023-05-17T00:02:23.169Z,11.74
2023-05-17T00:04:53.755Z,11.84
2023-05-17T00:07:26.234Z,11.73
2023-05-17T00:09:56.086Z,11.96
2023-05-17T00:12:25.941Z,11.94
2023-05-17T00:14:55.883Z,11.99
2023-05-17T00:17:26.192Z,11.92
2023-05-17T00:19:56.118Z,11.93
2023-05-17T00:22:28.628Z,12.02
2023-05-17T00:24:58.407Z,11.95
2023-05-17T00:27:28.198Z,11.83
2023-05-17T00:29:58.019Z,11.83
2023-05-17T00:32:27.878Z,11.77
2023-05-17T00:34:57.716Z,11.72
2023-05-17T00:37:30.125Z,11.89
2023-05-17T00:39:59.889Z,11.78
2023-05-17T00:42:29.693Z,11.79
2023-05-17T00:44:59.492Z,11.73
2023-05-17T00:47:29.350Z,11.72
2023-05-17T00:49:59.349Z,11.77
2023-05-17T00:52:31.786Z,11.83
2023-05-17T00:55:02.019Z,11.70
2023-05-17T00:57:32.360Z,11.82
2023-05-17T01:00:05.038Z,11.77
2023-05-17T01:02:35.888Z,11.84
2023-05-17T01:05:05.913Z,11.68
2023-05-17T01:07:38.474Z,11.85
2023-05-17T01:10:09.936Z,11.82
2023-05-17T01:12:50.925Z,11.65
2023-05-17T01:15:26.230Z,11.82
2023-05-17T01:18:09.852Z,11.82
2023-05-17T01:20:43.059Z,11.83
2023-05-17T01:23:30.839Z,11.72
2023-05-17T01:26:07.544Z,11.68
2023-05-17T01:28:41.424Z,11.55
2023-05-17T01:31:14.061Z,11.65
2023-05-17T01:33:44.307Z,11.64
2023-05-17T01:36:14.184Z,11.47
2023-05-17T01:38:44.617Z,11.63
2023-05-17T01:41:21.110Z,11.63
2023-05-17T01:43:58.035Z,11.55
2023-05-17T01:46:31.643Z,11.63
2023-05-17T01:49:11.805Z,11.34
2023-05-17T01:51:47.978Z,11.61
2023-05-17T01:54:23.174Z,11.51
2023-05-17T01:57:00.335Z,11.55
2023-05-17T01:59:34.445Z,11.54
2023-05-17T02:02:08.889Z,11.64
2023-05-17T02:04:39.589Z,11.56
2023-05-17T02:07:09.428Z,11.60
2023-05-17T02:09:39.457Z,11.53
2023-05-17T02:12:10.419Z,11.64
2023-05-17T02:14:42.774Z,11.61
2023-05-17T02:17:13.530Z,11.56
2023-05-17T02:19:43.396Z,11.61
2023-05-17T02:22:13.233Z,11.49
2023-05-17T02:24:43.041Z,11.46
2023-05-17T02:27:14.207Z,11.32
2023-05-17T02:29:46.555Z,11.21
2023-05-17T02:32:16.357Z,11.26
2023-05-17T02:34:49.058Z,11.29
2023-05-17T02:37:18.830Z,11.27
2023-05-17T02:39:48.622Z,11.24
2023-05-17T02:42:18.435Z,11.18
2023-05-17T02:44:53.134Z,11.28
2023-05-17T02:47:23.827Z,11.10
2023-05-17T02:49:53.637Z,11.24
2023-05-17T02:52:23.608Z,11.26
2023-05-17T02:54:53.421Z,11.25
2023-05-17T02:57:23.193Z,11.22
2023-05-17T02:59:55.707Z,11.24
2023-05-17T03:02:25.681Z,10.76
2023-05-17T03:04:55.520Z,10.56
2023-05-17T03:07:25.706Z,11.13
2023-05-17T03:09:56.280Z,11.15
2023-05-17T03:12:29.369Z,11.09
2023-05-17T03:15:02.111Z,11.04
2023-05-17T03:17:32.558Z,11.09
2023-05-17T03:20:02.960Z,10.67
2023-05-17T03:22:33.366Z,11.01
2023-05-17T03:25:03.388Z,11.01
2023-05-17T03:27:33.232Z,10.87
2023-05-17T03:30:06.339Z,10.99
2023-05-17T03:32:37.793Z,10.96
2023-05-17T03:35:08.501Z,10.86
2023-05-17T03:37:40.076Z,10.99
2023-05-17T03:40:11.615Z,10.91
2023-05-17T03:42:41.561Z,11.02
2023-05-17T03:45:14.717Z,11.00
2023-05-17T03:47:44.552Z,10.95
2023-05-17T03:50:15.221Z,10.89
2023-05-17T03:52:46.319Z,10.91
2023-05-17T03:55:16.589Z,10.97
2023-05-17T03:57:46.384Z,10.87
2023-05-17T04:00:22.032Z,10.98
2023-05-17T04:02:52.315Z,10.88
2023-05-17T04:05:23.284Z,10.88
2023-05-17T04:07:53.417Z,10.86
2023-05-17T04:10:23.292Z,11.04
2023-05-17T04:12:54.098Z,11.09
2023-05-17T04:15:26.678Z,11.14
2023-05-17T04:17:56.811Z,11.11
2023-05-17T04:20:27.666Z,11.19
2023-05-17T04:22:57.876Z,11.24
2023-05-17T04:25:31.260Z,11.09
2023-05-17T04:28:01.198Z,11.21
2023-05-17T04:30:33.589Z,11.26
2023-05-17T04:33:04.028Z,11.19
2023-05-17T04:35:33.928Z,11.14
2023-05-17T04:38:03.693Z,11.30
2023-05-17T04:40:33.833Z,11.18
2023-05-17T04:43:04.052Z,11.39
2023-05-17T04:45:37.945Z,11.43
2023-05-17T04:48:08.587Z,11.49
2023-05-17T04:50:38.600Z,11.40
2023-05-17T04:53:09.119Z,11.35
2023-05-17T04:55:40.088Z,11.53
2023-05-17T04:58:10.129Z,11.43
2023-05-17T05:00:43.844Z,11.40
2023-05-17T05:03:14.446Z,11.26
2023-05-17T05:05:44.662Z,11.33
2023-05-17T05:08:15.266Z,11.15
2023-05-17T05:10:46.896Z,11.39
2023-05-17T05:13:19.282Z,11.35
2023-05-17T05:15:51.849Z,11.49
2023-05-17T05:18:21.831Z,11.41
2023-05-17T05:20:52.196Z,11.51
2023-05-17T05:23:22.261Z,11.43
2023-05-17T05:25:52.480Z,11.56
2023-05-17T05:28:22.357Z,11.66
2023-05-17T05:31:00.872Z,11.87
2023-05-17T05:33:37.825Z,11.69
2023-05-17T05:36:08.863Z,11.57
2023-05-17T05:38:39.004Z,11.41
2023-05-17T05:41:09.562Z,11.52
2023-05-17T05:43:40.349Z,11.48
2023-05-17T05:46:13.358Z,11.49
2023-05-17T05:48:45.103Z,11.77
2023-05-17T05:51:15.524Z,11.97
2023-05-17T05:53:46.992Z,11.78
2023-05-17T05:56:16.997Z,11.69
2023-05-17T05:58:46.940Z,11.74
2023-05-17T06:01:19.476Z,12.05
2023-05-17T06:03:49.292Z,11.90
2023-05-17T06:06:19.694Z,11.81
2023-05-17T06:08:49.737Z,12.00
2023-05-17T06:11:21.221Z,11.99
2023-05-17T06:13:50.987Z,11.90
2023-05-17T06:16:23.452Z,11.95
2023-05-17T06:18:53.596Z,12.04
2023-05-17T06:21:23.573Z,12.13
2023-05-17T06:23:53.959Z,11.95
2023-05-17T06:26:23.940Z,11.80
2023-05-17T06:28:53.847Z,11.68
2023-05-17T06:31:26.868Z,11.84
2023-05-17T06:33:56.743Z,11.97
2023-05-17T06:36:27.217Z,11.41
2023-05-17T06:38:57.658Z,11.40
2023-05-17T06:41:27.493Z,11.49
2023-05-17T06:43:57.298Z,11.90
2023-05-17T06:46:29.731Z,12.11
2023-05-17T06:48:59.689Z,12.27
2023-05-17T06:51:29.583Z,12.16
2023-05-17T06:53:59.372Z,12.01
2023-05-17T06:56:29.716Z,12.16
2023-05-17T06:58:59.861Z,11.92
2023-05-17T07:01:32.425Z,11.81
2023-05-17T07:04:02.394Z,11.97
2023-05-17T07:06:32.268Z,12.08
2023-05-17T07:09:02.038Z,11.96
2023-05-17T07:11:31.902Z,11.93
2023-05-17T07:14:01.716Z,11.97
2023-05-17T07:16:34.152Z,12.20
2023-05-17T07:19:04.137Z,12.60
2023-05-17T07:21:34.594Z,12.89
2023-05-17T07:24:04.473Z,12.75
2023-05-17T07:26:34.319Z,12.78
2023-05-17T07:29:04.479Z,12.64
2023-05-17T07:31:37.002Z,12.46
2023-05-17T07:34:08.127Z,12.24
2023-05-17T07:36:38.179Z,12.36
2023-05-17T07:39:08.950Z,12.60
2023-05-17T07:41:39.905Z,12.62
2023-05-17T07:44:09.857Z,12.43
2023-05-17T07:46:42.390Z,12.33
2023-05-17T07:49:12.681Z,12.55
2023-05-17T07:51:43.035Z,12.76
2023-05-17T07:54:12.960Z,12.79
2023-05-17T07:56:42.799Z,12.56
2023-05-17T07:59:12.644Z,12.52
2023-05-17T08:01:45.129Z,12.72
2023-05-17T08:04:14.951Z,12.77
2023-05-17T08:06:45.987Z,12.99
2023-05-17T08:09:16.016Z,13.19
2023-05-17T08:11:46.833Z,13.15
2023-05-17T08:14:17.407Z,13.27
2023-05-17T08:16:51.891Z,13.46
2023-05-17T08:19:22.179Z,13.24
2023-05-17T08:21:52.106Z,13.15
2023-05-17T08:24:22.003Z,13.41
2023-05-17T08:26:51.829Z,12.51
2023-05-17T08:29:21.670Z,12.65
2023-05-17T08:31:54.332Z,12.68
2023-05-17T08:34:26.593Z,12.76
2023-05-17T08:36:56.678Z,12.91
2023-05-17T08:39:26.566Z,12.81
2023-05-17T08:41:59.628Z,13.07
2023-05-17T08:44:31.061Z,12.91
2023-05-17T08:47:04.316Z,12.72
2023-05-17T08:49:34.945Z,12.82
2023-05-17T08:52:10.025Z,12.99
2023-05-17T08:54:39.934Z,13.19
2023-05-17T08:57:10.922Z,13.13
2023-05-17T08:59:42.216Z,13.02
2023-05-17T09:02:17.146Z,13.06
2023-05-17T09:04:47.099Z,12.92
2023-05-17T09:07:17.621Z,12.84
2023-05-17T09:09:47.444Z,12.80
2023-05-17T09:12:17.273Z,12.91
2023-05-17T09:14:47.152Z,12.62
2023-05-17T09:17:23.427Z,12.97
2023-05-17T09:19:53.464Z,13.41
2023-05-17T09:22:23.526Z,13.91
2023-05-17T09:24:53.591Z,14.45
2023-05-17T09:27:23.385Z,14.56
2023-05-17T09:29:53.223Z,14.62
2023-05-17T09:32:25.912Z,14.24
2023-05-17T09:34:56.372Z,13.77
2023-05-17T09:37:26.378Z,13.63
2023-05-17T09:39:58.079Z,13.74
2023-05-17T09:42:29.248Z,13.68
2023-05-17T09:45:01.923Z,13.98
2023-05-17T09:47:35.765Z,14.40
2023-05-17T09:50:06.575Z,14.66
2023-05-17T09:52:40.253Z,14.36
2023-05-17T09:55:13.266Z,13.72
2023-05-17T09:57:43.872Z,13.71
2023-05-17T10:00:15.154Z,13.61
2023-05-17T10:02:51.142Z,13.86
2023-05-17T10:05:21.870Z,13.74
2023-05-17T10:07:53.467Z,13.73
2023-05-17T10:10:23.658Z,13.84
2023-05-17T10:12:54.274Z,13.28
2023-05-17T10:15:24.513Z,13.32
2023-05-17T10:17:57.481Z,13.10
2023-05-17T10:20:27.531Z,13.25
2023-05-17T10:22:58.942Z,13.23
2023-05-17T10:25:29.092Z,13.13
2023-05-17T10:28:00.064Z,13.40
2023-05-17T10:30:31.885Z,13.67
2023-05-17T10:33:05.786Z,13.66
2023-05-17T10:35:37.328Z,13.98
2023-05-17T10:38:08.395Z,13.87
2023-05-17T10:40:39.778Z,14.06
2023-05-17T10:43:12.382Z,14.26
2023-05-17T10:45:44.201Z,14.04
2023-05-17T10:48:19.022Z,13.88
2023-05-17T10:51:00.652Z,14.03
2023-05-17T10:53:30.952Z,14.15
2023-05-17T10:56:01.015Z,14.17
2023-05-17T10:58:31.848Z,14.67
2023-05-17T11:01:01.840Z,14.73
2023-05-17T11:03:34.817Z,14.90
2023-05-17T11:06:25.280Z,14.88
2023-05-17T11:09:16.756Z,14.31
2023-05-17T11:12:08.408Z,14.49
2023-05-17T11:14:51.995Z,14.74
2023-05-17T11:17:23.403Z,14.87
2023-05-17T11:20:06.216Z,14.95
2023-05-17T11:22:42.472Z,15.25
2023-05-17T11:25:14.929Z,14.97
2023-05-17T11:27:49.222Z,14.87
2023-05-17T11:30:21.726Z,14.64
2023-05-17T11:32:55.468Z,15.11
2023-05-17T11:35:31.567Z,15.07
2023-05-17T11:38:18.279Z,14.75
2023-05-17T11:40:49.492Z,14.60
2023-05-17T11:43:22.048Z,14.66
2023-05-17T11:45:53.854Z,14.89
2023-05-17T11:48:26.043Z,14.90
2023-05-17T11:51:01.912Z,14.78
2023-05-17T11:53:34.487Z,14.62
2023-05-17T11:56:06.867Z,14.53
2023-05-17T11:58:38.036Z,14.63
2023-05-17T12:01:09.235Z,14.58
2023-05-17T12:03:39.087Z,14.51
2023-05-17T12:06:13.314Z,14.26
2023-05-17T12:08:47.203Z,14.43
2023-05-17T12:11:19.738Z,14.38
2023-05-17T12:13:52.171Z,14.72
2023-05-17T12:16:25.139Z,15.34
2023-05-17T12:18:55.483Z,14.58
2023-05-17T12:21:28.003Z,14.87
2023-05-17T12:23:57.849Z,14.53
2023-05-17T12:26:27.727Z,14.30
2023-05-17T12:28:59.134Z,13.99
2023-05-17T12:31:32.287Z,13.79
2023-05-17T12:34:03.088Z,14.46
2023-05-17T12:36:37.491Z,14.57
2023-05-17T12:39:10.054Z,14.88
2023-05-17T12:41:41.174Z,14.65
2023-05-17T12:44:15.524Z,14.47
2023-05-17T12:46:50.662Z,14.26
2023-05-17T12:49:21.192Z,14.08
2023-05-17T12:51:53.784Z,14.20
2023-05-17T12:54:31.340Z,14.18
2023-05-17T12:57:01.206Z,14.51
2023-05-17T12:59:36.571Z,14.63
2023-05-17T13:02:06.883Z,14.79
2023-05-17T13:04:39.097Z,14.78
2023-05-17T13:07:11.689Z,14.69
2023-05-17T13:09:49.734Z,14.67
2023-05-17T13:12:23.349Z,14.96
2023-05-17T13:14:55.083Z,15.13
2023-05-17T13:17:28.585Z,15.18
2023-05-17T13:19:58.758Z,14.90
2023-05-17T13:22:31.495Z,15.16
2023-05-17T13:25:01.354Z,15.14
2023-05-17T13:27:31.480Z,15.34
2023-05-17T13:30:01.390Z,15.39
2023-05-17T13:32:31.922Z,15.43
2023-05-17T13:35:02.274Z,14.98
2023-05-17T13:37:34.741Z,15.18
2023-05-17T13:40:04.666Z,14.62
2023-05-17T13:42:34.913Z,15.11
2023-05-17T13:45:04.799Z,14.96
2023-05-17T13:47:37.917Z,15.05
2023-05-17T13:50:08.736Z,15.06
2023-05-17T13:52:41.306Z,15.24
2023-05-17T13:55:11.795Z,15.08
2023-05-17T13:57:42.483Z,15.51
2023-05-17T14:00:13.825Z,15.44
2023-05-17T14:02:49.134Z,15.17
2023-05-17T14:05:19.322Z,15.07
2023-05-17T14:07:51.735Z,14.98
2023-05-17T14:10:21.631Z,14.75
2023-05-17T14:12:51.547Z,14.91
2023-05-17T14:15:22.056Z,15.05
2023-05-17T14:17:52.734Z,15.10
2023-05-17T14:20:22.598Z,14.77
2023-05-17T14:22:55.074Z,14.88
2023-05-17T14:25:25.428Z,15.04
2023-05-17T14:27:55.271Z,15.01
2023-05-17T14:30:25.310Z,15.13
2023-05-17T14:32:55.176Z,15.59
2023-05-17T14:35:25.115Z,15.80
2023-05-17T14:37:57.502Z,15.67
2023-05-17T14:40:27.543Z,15.38
2023-05-17T14:42:58.455Z,15.81
2023-05-17T14:45:28.268Z,15.32
2023-05-17T14:47:58.124Z,15.06
2023-05-17T14:50:28.116Z,14.85
2023-05-17T14:53:00.676Z,14.85
2023-05-17T14:55:30.892Z,15.12
2023-05-17T14:58:02.062Z,15.31
2023-05-17T15:00:31.891Z,15.22
2023-05-17T15:03:01.874Z,14.42
2023-05-17T15:05:32.612Z,14.99
2023-05-17T15:08:05.404Z,14.56
2023-05-17T15:10:35.661Z,14.72
2023-05-17T15:13:05.489Z,14.88
2023-05-17T15:15:36.872Z,14.84
2023-05-17T15:18:06.914Z,14.91
2023-05-17T15:20:39.681Z,15.17
2023-05-17T15:23:12.302Z,15.35
2023-05-17T15:25:42.183Z,15.19
2023-05-17T15:28:12.360Z,14.88
2023-05-17T15:30:42.319Z,15.09
2023-05-17T15:33:12.510Z,15.23
2023-05-17T15:35:43.359Z,14.91
2023-05-17T15:38:15.837Z,15.06
2023-05-17T15:40:45.646Z,15.21
2023-05-17T15:43:15.459Z,15.37
2023-05-17T15:45:45.238Z,15.57
2023-05-17T15:48:15.298Z,15.35
2023-05-17T15:50:45.112Z,15.36
2023-05-17T15:53:17.615Z,15.43
2023-05-17T15:55:50.896Z,15.16
2023-05-17T15:58:20.897Z,14.90
2023-05-17T16:00:50.966Z,14.62
2023-05-17T16:03:20.842Z,14.20
2023-05-17T16:05:50.903Z,14.42
2023-05-17T16:08:23.575Z,14.31
2023-05-17T16:10:53.383Z,14.96
2023-05-17T16:13:23.161Z,14.47
2023-05-17T16:15:52.961Z,14.50
2023-05-17T16:18:22.817Z,14.56
2023-05-17T16:21:00.261Z,14.57
2023-05-17T16:23:32.921Z,14.43
2023-05-17T16:26:03.032Z,14.40
2023-05-17T16:28:34.777Z,14.21
2023-05-17T16:31:06.293Z,14.26
2023-05-17T16:33:36.151Z,14.17
2023-05-17T16:36:06.797Z,14.25
2023-05-17T16:38:39.248Z,14.26
2023-05-17T16:41:09.059Z,14.17
2023-05-17T16:43:39.015Z,14.18
2023-05-17T16:46:08.838Z,14.14
2023-05-17T16:48:38.680Z,14.08
2023-05-17T16:51:08.719Z,14.04
2023-05-17T16:53:41.165Z,14.07
2023-05-17T16:56:10.932Z,14.20
2023-05-17T16:58:40.683Z,14.04
2023-05-17T17:01:10.522Z,13.85
2023-05-17T17:03:40.430Z,13.82
2023-05-17T17:06:10.390Z,14.05
2023-05-17T17:08:42.800Z,14.04
2023-05-17T17:11:12.590Z,14.07
2023-05-17T17:13:42.452Z,14.10
2023-05-17T17:16:12.287Z,14.06
2023-05-17T17:18:42.147Z,13.79
2023-05-17T17:21:11.983Z,13.78
2023-05-17T17:23:44.603Z,13.62
2023-05-17T17:26:15.569Z,13.43
2023-05-17T17:28:45.588Z,13.25
2023-05-17T17:31:15.343Z,13.56
2023-05-17T17:33:45.184Z,13.48
2023-05-17T17:36:15.016Z,13.45
2023-05-17T17:38:47.408Z,13.23
2023-05-17T17:41:17.216Z,13.27
2023-05-17T17:43:47.647Z,13.18
2023-05-17T17:46:17.415Z,13.09
2023-05-17T17:48:47.191Z,13.03
2023-05-17T17:51:16.981Z,12.67
2023-05-17T17:53:49.349Z,12.97
2023-05-17T17:56:19.132Z,13.10
2023-05-17T17:58:49.212Z,13.01
2023-05-17T18:01:19.198Z,13.15
2023-05-17T18:03:49.008Z,13.02
2023-05-17T18:06:19.682Z,12.85
2023-05-17T18:08:52.052Z,12.79
2023-05-17T18:11:21.869Z,12.77
2023-05-17T18:13:51.839Z,12.63
2023-05-17T18:16:21.673Z,12.72
2023-05-17T18:18:51.597Z,12.54
2023-05-17T18:21:21.785Z,12.45
2023-05-17T18:23:54.228Z,12.51
2023-05-17T18:26:24.283Z,12.33
2023-05-17T18:28:54.162Z,12.38
2023-05-17T18:31:23.975Z,12.34
2023-05-17T18:33:56.308Z,12.13
2023-05-17T18:36:27.801Z,12.27
2023-05-17T18:39:01.064Z,12.22
2023-05-17T18:41:31.433Z,11.95
2023-05-17T18:44:04.300Z,12.03
2023-05-17T18:46:34.368Z,11.98
2023-05-17T18:49:04.409Z,11.90
2023-05-17T18:51:34.344Z,11.98
2023-05-17T18:54:06.877Z,12.48
2023-05-17T18:56:36.708Z,12.08
2023-05-17T18:59:06.585Z,11.88
2023-05-17T19:01:36.958Z,11.70
2023-05-17T19:04:06.885Z,11.69
2023-05-17T19:06:36.711Z,11.73
2023-05-17T19:09:09.190Z,11.76
2023-05-17T19:11:39.074Z,11.59
2023-05-17T19:14:08.885Z,11.65
2023-05-17T19:16:39.288Z,11.63
2023-05-17T19:19:09.426Z,11.59
2023-05-17T19:21:39.273Z,11.58
2023-05-17T19:24:11.805Z,11.60
2023-05-17T19:26:41.755Z,11.52
2023-05-17T19:29:11.517Z,11.52
2023-05-17T19:31:41.332Z,11.23
2023-05-17T19:34:11.210Z,11.69
2023-05-17T19:36:40.994Z,11.66
2023-05-17T19:39:13.426Z,11.67
2023-05-17T19:41:43.222Z,11.64
2023-05-17T19:44:13.075Z,11.69
2023-05-17T19:46:43.036Z,11.66
2023-05-17T19:49:12.826Z,11.61
2023-05-17T19:51:42.585Z,11.32
2023-05-17T19:54:15.090Z,11.63
2023-05-17T19:56:45.011Z,11.53
2023-05-17T19:59:14.818Z,11.42
2023-05-17T20:01:44.620Z,11.30
2023-05-17T20:04:14.728Z,11.41
2023-05-17T20:06:44.566Z,11.34
2023-05-17T20:09:17.017Z,11.20
2023-05-17T20:11:46.916Z,11.20
2023-05-17T20:14:16.700Z,10.81
2023-05-17T20:16:46.586Z,11.00
2023-05-17T20:19:16.797Z,11.18
2023-05-17T20:21:46.754Z,11.14
2023-05-17T20:24:19.619Z,11.18
2023-05-17T20:26:49.585Z,11.01
2023-05-17T20:29:19.531Z,11.04
2023-05-17T20:31:49.416Z,11.17
2023-05-17T20:34:19.377Z,11.14
2023-05-17T20:36:49.278Z,11.17
2023-05-17T20:39:22.320Z,11.21
2023-05-17T20:41:52.554Z,11.07
2023-05-17T20:44:24.225Z,10.90
2023-05-17T20:46:54.373Z,10.93
2023-05-17T20:49:24.236Z,10.74
2023-05-17T20:51:54.025Z,10.73
2023-05-17T20:54:27.807Z,10.72
2023-05-17T20:56:57.589Z,10.69
2023-05-17T20:59:27.579Z,10.64
2023-05-17T21:01:57.652Z,10.62
2023-05-17T21:04:27.569Z,10.57
2023-05-17T21:06:58.243Z,10.47
2023-05-17T21:09:30.662Z,10.48
2023-05-17T21:12:00.453Z,10.44
2023-05-17T21:14:30.270Z,10.43
2023-05-17T21:17:00.107Z,10.36
2023-05-17T21:19:29.951Z,10.32
2023-05-17T21:21:59.767Z,10.01
2023-05-17T21:24:32.186Z,10.22
2023-05-17T21:27:02.275Z,10.06
2023-05-17T21:29:32.147Z,10.07
2023-05-17T21:32:01.941Z,10.06
2023-05-17T21:34:31.730Z,11.27
2023-05-17T21:37:01.641Z,10.86
2023-05-17T21:39:33.997Z,10.60
2023-05-17T21:42:03.832Z,10.44
2023-05-17T21:44:33.626Z,10.36
2023-05-17T21:47:03.680Z,10.31
2023-05-17T21:49:33.561Z,10.25
2023-05-17T21:52:03.410Z,10.22
2023-05-17T21:54:35.926Z,10.19
2023-05-17T21:57:05.816Z,10.00
2023-05-17T21:59:36.446Z,10.07
2023-05-17T22:02:07.005Z,9.94
2023-05-17T22:04:38.408Z,9.81
2023-05-17T22:07:08.803Z,9.75
2023-05-17T22:09:41.221Z,9.70
2023-05-17T22:12:12.384Z,9.62
2023-05-17T22:14:44.666Z,9.75
2023-05-17T22:17:15.255Z,9.71
2023-05-17T22:19:45.587Z,9.66
2023-05-17T22:22:15.534Z,9.60
2023-05-17T22:24:47.940Z,9.69
2023-05-17T22:27:17.751Z,9.58
2023-05-17T22:29:47.531Z,9.62
2023-05-17T22:32:17.728Z,9.59
2023-05-17T22:34:47.578Z,9.41
2023-05-17T22:37:17.767Z,9.54
2023-05-17T22:39:50.256Z,9.30
2023-05-17T22:42:20.199Z,8.98
2023-05-17T22:44:50.024Z,9.22
2023-05-17T22:47:23.128Z,9.16
2023-05-17T22:49:53.590Z,9.04
2023-05-17T22:52:23.348Z,9.04
2023-05-17T22:54:55.811Z,8.97
2023-05-17T22:57:25.856Z,8.87
2023-05-17T22:59:55.628Z,9.01
2023-05-17T23:02:25.432Z,8.94
2023-05-17T23:04:55.884Z,8.89
2023-05-17T23:07:27.935Z,8.76
2023-05-17T23:10:00.279Z,8.92
2023-05-17T23:12:31.672Z,8.69
2023-05-17T23:15:01.525Z,8.84
2023-05-17T23:17:34.155Z,8.55
2023-05-17T23:20:07.100Z,8.69
2023-05-17T23:22:36.953Z,8.74
2023-05-17T23:25:09.893Z,8.72
2023-05-17T23:27:39.664Z,8.64
2023-05-17T23:30:10.930Z,8.48
2023-05-17T23:32:42.555Z,8.45
2023-05-17T23:35:12.583Z,8.32
2023-05-17T23:37:42.384Z,8.27
2023-05-17T23:40:16.842Z,8.22
2023-05-17T23:42:46.742Z,8.27
2023-05-17T23:45:16.564Z,8.06
2023-05-17T23:47:47.904Z,8.12
2023-05-17T23:50:18.229Z,8.12
2023-05-17T23:52:48.041Z,7.96
2023-05-17T23:55:22.363Z,8.10
2023-05-17T23:57:52.468Z,8.23
